sensor_id;sensor_type;location;lat;lon;timestamp;temperature;humidity
6407;DHT22;3236;51.022;6.818;2024-03-23T00:54:10;8.80;99.90
6407;DHT22;3236;51.022;6.818;2024-03-23T00:56:37;8.70;99.90
6407;DHT22;3236;51.022;6.818;2024-03-23T00:59:03;8.80;99.90
6407;DHT22;3236;51.022;6.818;2024-03-23T01:01:30;8.60;99.90
6407;DHT22;3236;51.022;6.818;2024-03-23T01:03:56;8.50;99.90
6407;DHT22;3236;51.022;6.818;2024-03-23T01:06:23;8.90;99.90
6407;DHT22;3236;51.022;6.818;2024-03-23T01:08:49;8.70;99.90
6407;DHT22;3236;51.022;6.818;2024-03-23T01:11:25;8.50;99.90
6407;DHT22;3236;51.022;6.818;2024-03-23T01:13:53;8.50;99.90
6407;DHT22;3236;51.022;6.818;2024-03-23T01:16:21;8.60;99.90
6407;DHT22;3236;51.022;6.818;2024-03-23T01:18:47;8.40;99.90
6407;DHT22;3236;51.022;6.818;2024-03-23T01:21:15;8.40;99.90
6407;DHT22;3236;51.022;6.818;2024-03-23T01:23:40;8.30;99.90
6407;DHT22;3236;51.022;6.818;2024-03-23T01:26:07;8.30;99.90
6407;DHT22;3236;51.022;6.818;2024-03-23T01:28:35;8.20;99.90
6407;DHT22;3236;51.022;6.818;2024-03-23T01:31:02;8.30;99.90
6407;DHT22;3236;51.022;6.818;2024-03-23T01:33:28;8.30;99.90
6407;DHT22;3236;51.022;6.818;2024-03-23T01:36:01;8.30;99.90
6407;DHT22;3236;51.022;6.818;2024-03-23T01:40:57;8.30;99.90
6407;DHT22;3236;51.022;6.818;2024-03-23T01:43:23;8.30;99.90
6407;DHT22;3236;51.022;6.818;2024-03-23T01:45:51;8.20;99.90
6407;DHT22;3236;51.022;6.818;2024-03-23T01:48:19;8.20;99.90
6407;DHT22;3236;51.022;6.818;2024-03-23T01:50:46;8.10;99.90
6407;DHT22;3236;51.022;6.818;2024-03-23T01:53:14;8.00;99.90
6407;DHT22;3236;51.022;6.818;2024-03-23T01:55:43;8.20;99.90
6407;DHT22;3236;51.022;6.818;2024-03-23T01:58:09;8.10;99.90
6407;DHT22;3236;51.022;6.818;2024-03-23T02:00:36;8.30;99.90
6407;DHT22;3236;51.022;6.818;2024-03-23T02:03:28;7.60;99.90
6407;DHT22;3236;51.022;6.818;2024-03-23T02:05:55;7.90;99.90
6407;DHT22;3236;51.022;6.818;2024-03-23T02:08:23;7.70;99.90
6407;DHT22;3236;51.022;6.818;2024-03-23T02:10:50;7.60;99.90
6407;DHT22;3236;51.022;6.818;2024-03-23T02:13:18;7.40;99.90
6407;DHT22;3236;51.022;6.818;2024-03-23T02:15:45;7.60;99.90
6407;DHT22;3236;51.022;6.818;2024-03-23T02:18:16;8.10;99.90
6407;DHT22;3236;51.022;6.818;2024-03-23T02:20:43;7.10;99.90
6407;DHT22;3236;51.022;6.818;2024-03-23T02:23:17;6.70;99.90
6407;DHT22;3236;51.022;6.818;2024-03-23T02:25:48;7.30;99.90
6407;DHT22;3236;51.022;6.818;2024-03-23T02:28:14;6.90;99.90
6407;DHT22;3236;51.022;6.818;2024-03-23T02:30:41;6.90;99.90
6407;DHT22;3236;51.022;6.818;2024-03-23T02:33:06;6.40;99.90
6407;DHT22;3236;51.022;6.818;2024-03-23T02:35:34;6.80;99.90
6407;DHT22;3236;51.022;6.818;2024-03-23T02:38:00;6.80;99.90
6407;DHT22;3236;51.022;6.818;2024-03-23T02:40:28;6.50;99.90
6407;DHT22;3236;51.022;6.818;2024-03-23T02:42:54;6.50;99.90
6407;DHT22;3236;51.022;6.818;2024-03-23T02:45:22;6.40;99.90
6407;DHT22;3236;51.022;6.818;2024-03-23T02:47:49;6.70;99.90
6407;DHT22;3236;51.022;6.818;2024-03-23T02:50:25;6.40;99.90
6407;DHT22;3236;51.022;6.818;2024-03-23T02:52:52;6.40;99.90
6407;DHT22;3236;51.022;6.818;2024-03-23T02:55:18;6.40;99.90
6407;DHT22;3236;51.022;6.818;2024-03-23T02:57:47;6.40;99.90
6407;DHT22;3236;51.022;6.818;2024-03-23T03:00:13;6.40;99.90
6407;DHT22;3236;51.022;6.818;2024-03-23T03:02:40;6.40;99.90
6407;DHT22;3236;51.022;6.818;2024-03-23T03:05:06;6.50;99.90
6407;DHT22;3236;51.022;6.818;2024-03-23T03:07:34;6.40;99.90
6407;DHT22;3236;51.022;6.818;2024-03-23T03:10:00;6.70;99.90
6407;DHT22;3236;51.022;6.818;2024-03-23T03:12:27;6.60;99.90
6407;DHT22;3236;51.022;6.818;2024-03-23T03:14:54;6.50;99.90
6407;DHT22;3236;51.022;6.818;2024-03-23T03:17:21;6.50;99.90
6407;DHT22;3236;51.022;6.818;2024-03-23T03:19:49;6.50;99.90
6407;DHT22;3236;51.022;6.818;2024-03-23T03:22:21;6.50;99.90
6407;DHT22;3236;51.022;6.818;2024-03-23T03:27:14;6.50;99.90
6407;DHT22;3236;51.022;6.818;2024-03-23T03:29:40;6.30;99.90
6407;DHT22;3236;51.022;6.818;2024-03-23T03:32:09;6.40;99.90
6407;DHT22;3236;51.022;6.818;2024-03-23T03:34:35;6.40;99.90
6407;DHT22;3236;51.022;6.818;2024-03-23T03:37:01;6.50;99.90
6407;DHT22;3236;51.022;6.818;2024-03-23T03:39:27;6.50;99.90
6407;DHT22;3236;51.022;6.818;2024-03-23T03:44:24;6.50;99.90
6407;DHT22;3236;51.022;6.818;2024-03-23T03:46:51;6.40;99.90
6407;DHT22;3236;51.022;6.818;2024-03-23T03:49:18;6.40;99.90
6407;DHT22;3236;51.022;6.818;2024-03-23T03:51:45;6.40;99.90
6407;DHT22;3236;51.022;6.818;2024-03-23T03:54:11;6.20;99.90
6407;DHT22;3236;51.022;6.818;2024-03-23T03:56:38;6.40;99.90
6407;DHT22;3236;51.022;6.818;2024-03-23T03:59:04;6.50;99.90
6407;DHT22;3236;51.022;6.818;2024-03-23T04:01:31;6.40;99.90
6407;DHT22;3236;51.022;6.818;2024-03-23T04:03:57;6.90;99.90
6407;DHT22;3236;51.022;6.818;2024-03-23T04:06:26;6.50;99.90
6407;DHT22;3236;51.022;6.818;2024-03-23T04:08:51;6.80;99.90
6407;DHT22;3236;51.022;6.818;2024-03-23T04:11:18;6.50;99.90
6407;DHT22;3236;51.022;6.818;2024-03-23T04:13:44;6.50;99.90
6407;DHT22;3236;51.022;6.818;2024-03-23T04:16:11;6.50;99.90
6407;DHT22;3236;51.022;6.818;2024-03-23T04:18:37;6.50;99.90
6407;DHT22;3236;51.022;6.818;2024-03-23T04:21:04;6.50;99.90
6407;DHT22;3236;51.022;6.818;2024-03-23T04:23:32;6.50;99.90
6407;DHT22;3236;51.022;6.818;2024-03-23T04:26:03;6.50;99.90
6407;DHT22;3236;51.022;6.818;2024-03-23T04:28:30;6.50;99.90
6407;DHT22;3236;51.022;6.818;2024-03-23T04:30:56;6.50;99.90
6407;DHT22;3236;51.022;6.818;2024-03-23T04:33:23;6.40;99.90
6407;DHT22;3236;51.022;6.818;2024-03-23T04:35:49;6.40;99.90
6407;DHT22;3236;51.022;6.818;2024-03-23T04:38:16;6.50;99.90
6407;DHT22;3236;51.022;6.818;2024-03-23T04:40:45;6.20;99.90
6407;DHT22;3236;51.022;6.818;2024-03-23T04:43:11;6.10;99.90
6407;DHT22;3236;51.022;6.818;2024-03-23T04:45:39;6.30;99.90
6407;DHT22;3236;51.022;6.818;2024-03-23T04:48:07;6.40;99.90
6407;DHT22;3236;51.022;6.818;2024-03-23T04:50:34;6.30;99.90
6407;DHT22;3236;51.022;6.818;2024-03-23T04:53:01;5.90;99.90
6407;DHT22;3236;51.022;6.818;2024-03-23T04:55:28;6.60;99.90
6407;DHT22;3236;51.022;6.818;2024-03-23T04:57:55;6.30;99.90
6407;DHT22;3236;51.022;6.818;2024-03-23T05:00:22;6.20;99.90
6407;DHT22;3236;51.022;6.818;2024-03-23T05:02:50;6.30;99.90
6407;DHT22;3236;51.022;6.818;2024-03-23T05:05:18;6.50;99.90
6407;DHT22;3236;51.022;6.818;2024-03-23T05:07:44;6.30;99.90
6407;DHT22;3236;51.022;6.818;2024-03-23T05:10:11;6.30;99.90
6407;DHT22;3236;51.022;6.818;2024-03-23T05:15:08;6.10;99.90
6407;DHT22;3236;51.022;6.818;2024-03-23T05:17:34;6.30;99.90
6407;DHT22;3236;51.022;6.818;2024-03-23T05:20:01;6.50;99.90
6407;DHT22;3236;51.022;6.818;2024-03-23T05:22:28;6.40;99.90
6407;DHT22;3236;51.022;6.818;2024-03-23T05:24:56;6.60;99.90
6407;DHT22;3236;51.022;6.818;2024-03-23T05:27:22;6.30;99.90
6407;DHT22;3236;51.022;6.818;2024-03-23T05:29:51;6.30;99.90
6407;DHT22;3236;51.022;6.818;2024-03-23T05:32:19;6.20;99.90
6407;DHT22;3236;51.022;6.818;2024-03-23T05:34:46;5.90;99.90
6407;DHT22;3236;51.022;6.818;2024-03-23T05:37:12;6.60;99.90
6407;DHT22;3236;51.022;6.818;2024-03-23T05:39:39;6.50;99.90
6407;DHT22;3236;51.022;6.818;2024-03-23T05:42:05;5.70;99.90
6407;DHT22;3236;51.022;6.818;2024-03-23T05:44:33;6.30;99.90
6407;DHT22;3236;51.022;6.818;2024-03-23T05:46:59;6.10;99.90
6407;DHT22;3236;51.022;6.818;2024-03-23T05:49:27;6.10;99.90
6407;DHT22;3236;51.022;6.818;2024-03-23T05:51:54;5.70;99.90
6407;DHT22;3236;51.022;6.818;2024-03-23T05:54:21;6.30;99.90
6407;DHT22;3236;51.022;6.818;2024-03-23T05:56:47;6.00;99.90
6407;DHT22;3236;51.022;6.818;2024-03-23T05:59:14;6.10;99.90
6407;DHT22;3236;51.022;6.818;2024-03-23T06:04:07;6.30;99.90
6407;DHT22;3236;51.022;6.818;2024-03-23T06:06:34;5.90;99.90
6407;DHT22;3236;51.022;6.818;2024-03-23T06:09:01;5.70;99.90
6407;DHT22;3236;51.022;6.818;2024-03-23T06:11:27;5.70;99.90
6407;DHT22;3236;51.022;6.818;2024-03-23T06:13:54;6.30;99.90
6407;DHT22;3236;51.022;6.818;2024-03-23T06:18:49;6.30;99.90
6407;DHT22;3236;51.022;6.818;2024-03-23T06:21:15;5.70;99.90
6407;DHT22;3236;51.022;6.818;2024-03-23T06:23:44;6.20;99.90
6407;DHT22;3236;51.022;6.818;2024-03-23T06:26:16;5.90;99.90
6407;DHT22;3236;51.022;6.818;2024-03-23T06:28:43;5.90;99.90
6407;DHT22;3236;51.022;6.818;2024-03-23T06:31:10;5.60;99.90
6407;DHT22;3236;51.022;6.818;2024-03-23T06:36:04;5.90;99.90
6407;DHT22;3236;51.022;6.818;2024-03-23T06:40:58;5.90;99.90
6407;DHT22;3236;51.022;6.818;2024-03-23T06:43:25;6.00;99.90
6407;DHT22;3236;51.022;6.818;2024-03-23T06:45:54;6.10;99.90
6407;DHT22;3236;51.022;6.818;2024-03-23T06:48:21;6.50;99.90
6407;DHT22;3236;51.022;6.818;2024-03-23T06:50:48;6.50;99.90
6407;DHT22;3236;51.022;6.818;2024-03-23T06:55:50;6.30;99.90
6407;DHT22;3236;51.022;6.818;2024-03-23T07:08:06;6.40;99.90
6407;DHT22;3236;51.022;6.818;2024-03-23T07:15:27;6.60;99.90
6407;DHT22;3236;51.022;6.818;2024-03-23T07:25:19;6.90;99.90
6407;DHT22;3236;51.022;6.818;2024-03-23T07:28:02;7.00;99.90
6407;DHT22;3236;51.022;6.818;2024-03-23T07:30:29;7.10;99.90
6407;DHT22;3236;51.022;6.818;2024-03-23T07:47:39;7.40;99.90
6407;DHT22;3236;51.022;6.818;2024-03-23T07:50:06;7.20;99.90
6407;DHT22;3236;51.022;6.818;2024-03-23T07:55:03;7.20;99.90
6407;DHT22;3236;51.022;6.818;2024-03-23T07:57:31;7.40;99.90
6407;DHT22;3236;51.022;6.818;2024-03-23T08:04:59;7.40;99.90
6407;DHT22;3236;51.022;6.818;2024-03-23T08:22:10;7.80;99.90
6407;DHT22;3236;51.022;6.818;2024-03-23T08:39:19;8.00;99.90
6407;DHT22;3236;51.022;6.818;2024-03-23T08:54:00;8.30;99.90
6407;DHT22;3236;51.022;6.818;2024-03-23T08:56:28;8.30;99.90
6407;DHT22;3236;51.022;6.818;2024-03-23T09:01:22;8.90;99.90
6407;DHT22;3236;51.022;6.818;2024-03-23T09:03:49;8.80;99.90
6407;DHT22;3236;51.022;6.818;2024-03-23T09:08:42;8.40;99.90
6407;DHT22;3236;51.022;6.818;2024-03-23T09:11:11;9.30;99.90
6407;DHT22;3236;51.022;6.818;2024-03-23T09:13:39;8.70;99.90
6407;DHT22;3236;51.022;6.818;2024-03-23T09:16:07;8.80;99.90
6407;DHT22;3236;51.022;6.818;2024-03-23T09:18:36;8.60;99.90
6407;DHT22;3236;51.022;6.818;2024-03-23T09:21:04;8.60;99.90
6407;DHT22;3236;51.022;6.818;2024-03-23T09:25:57;9.50;1.00
6407;DHT22;3236;51.022;6.818;2024-03-23T09:28:26;9.10;1.00
6407;DHT22;3236;51.022;6.818;2024-03-23T09:30:55;9.10;99.90
6407;DHT22;3236;51.022;6.818;2024-03-23T09:33:23;9.50;99.90
6407;DHT22;3236;51.022;6.818;2024-03-23T09:40:45;9.30;19.40
6407;DHT22;3236;51.022;6.818;2024-03-23T09:43:11;9.30;99.90
6407;DHT22;3236;51.022;6.818;2024-03-23T09:45:39;9.30;28.70
6407;DHT22;3236;51.022;6.818;2024-03-23T09:48:08;9.20;73.20
6407;DHT22;3236;51.022;6.818;2024-03-23T09:50:36;9.30;99.90
6407;DHT22;3236;51.022;6.818;2024-03-23T09:57:59;9.50;59.70
6407;DHT22;3236;51.022;6.818;2024-03-23T10:00:33;9.60;99.90
6407;DHT22;3236;51.022;6.818;2024-03-23T10:05:29;9.50;97.90
6407;DHT22;3236;51.022;6.818;2024-03-23T10:10:25;9.80;1.00
6407;DHT22;3236;51.022;6.818;2024-03-23T10:15:20;9.90;99.80
6407;DHT22;3236;51.022;6.818;2024-03-23T10:20:19;10.10;99.90
6407;DHT22;3236;51.022;6.818;2024-03-23T10:22:46;9.80;37.50
6407;DHT22;3236;51.022;6.818;2024-03-23T10:25:14;10.00;99.90
6407;DHT22;3236;51.022;6.818;2024-03-23T10:30:10;8.30;99.90
6407;DHT22;3236;51.022;6.818;2024-03-23T10:32:37;8.80;99.90
6407;DHT22;3236;51.022;6.818;2024-03-23T10:35:14;7.90;99.90
6407;DHT22;3236;51.022;6.818;2024-03-23T10:37:42;7.70;99.90
6407;DHT22;3236;51.022;6.818;2024-03-23T10:40:12;7.70;18.60
6407;DHT22;3236;51.022;6.818;2024-03-23T10:45:08;6.80;99.90
6407;DHT22;3236;51.022;6.818;2024-03-23T10:47:35;6.90;99.90
6407;DHT22;3236;51.022;6.818;2024-03-23T10:50:03;6.60;99.90
6407;DHT22;3236;51.022;6.818;2024-03-23T10:52:31;6.90;62.00
6407;DHT22;3236;51.022;6.818;2024-03-23T10:54:59;6.40;31.60
6407;DHT22;3236;51.022;6.818;2024-03-23T10:57:34;6.60;99.90
6407;DHT22;3236;51.022;6.818;2024-03-23T11:00:03;6.40;99.90
6407;DHT22;3236;51.022;6.818;2024-03-23T11:02:29;6.60;99.90
6407;DHT22;3236;51.022;6.818;2024-03-23T11:07:30;7.10;99.90
6407;DHT22;3236;51.022;6.818;2024-03-23T11:09:58;6.90;99.90
6407;DHT22;3236;51.022;6.818;2024-03-23T11:12:29;5.40;92.10
6407;DHT22;3236;51.022;6.818;2024-03-23T11:15:01;6.10;1.70
6407;DHT22;3236;51.022;6.818;2024-03-23T11:17:28;5.60;96.30
6407;DHT22;3236;51.022;6.818;2024-03-23T11:19:57;5.50;99.90
6407;DHT22;3236;51.022;6.818;2024-03-23T11:22:40;6.20;99.90
6407;DHT22;3236;51.022;6.818;2024-03-23T11:25:14;7.60;99.90
6407;DHT22;3236;51.022;6.818;2024-03-23T11:27:44;8.10;99.90
6407;DHT22;3236;51.022;6.818;2024-03-23T11:30:16;9.50;99.90
6407;DHT22;3236;51.022;6.818;2024-03-23T11:32:43;10.50;99.90
6407;DHT22;3236;51.022;6.818;2024-03-23T11:35:10;10.70;99.90
6407;DHT22;3236;51.022;6.818;2024-03-23T11:37:37;10.70;94.10
6407;DHT22;3236;51.022;6.818;2024-03-23T11:40:36;9.50;99.90
6407;DHT22;3236;51.022;6.818;2024-03-23T11:43:26;8.80;99.90
6407;DHT22;3236;51.022;6.818;2024-03-23T11:45:56;8.70;1.00
6407;DHT22;3236;51.022;6.818;2024-03-23T11:50:56;8.80;99.90
6407;DHT22;3236;51.022;6.818;2024-03-23T11:53:24;9.50;1.00
6407;DHT22;3236;51.022;6.818;2024-03-23T11:55:54;9.50;1.00
6407;DHT22;3236;51.022;6.818;2024-03-23T11:58:21;10.40;99.90
6407;DHT22;3236;51.022;6.818;2024-03-23T12:00:58;10.40;1.00
6407;DHT22;3236;51.022;6.818;2024-03-23T12:03:25;11.30;99.90
6407;DHT22;3236;51.022;6.818;2024-03-23T12:05:54;12.40;77.20
6407;DHT22;3236;51.022;6.818;2024-03-23T12:08:22;11.70;99.90
6407;DHT22;3236;51.022;6.818;2024-03-23T12:10:51;10.10;99.90
6407;DHT22;3236;51.022;6.818;2024-03-23T12:13:19;9.60;99.90
6407;DHT22;3236;51.022;6.818;2024-03-23T12:15:47;10.30;99.90
6407;DHT22;3236;51.022;6.818;2024-03-23T12:18:14;10.00;99.90
6407;DHT22;3236;51.022;6.818;2024-03-23T12:23:09;8.60;99.90
6407;DHT22;3236;51.022;6.818;2024-03-23T12:25:37;7.30;99.90
6407;DHT22;3236;51.022;6.818;2024-03-23T12:28:04;7.20;99.90
6407;DHT22;3236;51.022;6.818;2024-03-23T12:30:34;6.60;99.90
6407;DHT22;3236;51.022;6.818;2024-03-23T12:35:30;5.50;99.90
6407;DHT22;3236;51.022;6.818;2024-03-23T12:40:23;5.40;99.90
6407;DHT22;3236;51.022;6.818;2024-03-23T12:42:49;5.50;99.90
6407;DHT22;3236;51.022;6.818;2024-03-23T12:45:16;5.40;99.90
6407;DHT22;3236;51.022;6.818;2024-03-23T12:47:42;6.40;99.90
6407;DHT22;3236;51.022;6.818;2024-03-23T12:50:09;8.20;99.90
6407;DHT22;3236;51.022;6.818;2024-03-23T12:52:37;9.10;99.90
6407;DHT22;3236;51.022;6.818;2024-03-23T12:55:05;10.30;57.10
6407;DHT22;3236;51.022;6.818;2024-03-23T12:57:31;10.40;99.90
6407;DHT22;3236;51.022;6.818;2024-03-23T13:00:01;11.80;1.00
6407;DHT22;3236;51.022;6.818;2024-03-23T13:02:29;12.50;65.60
6407;DHT22;3236;51.022;6.818;2024-03-23T13:09:55;12.90;99.90
6407;DHT22;3236;51.022;6.818;2024-03-23T13:12:25;12.10;1.00
6407;DHT22;3236;51.022;6.818;2024-03-23T13:14:52;13.10;1.00
6407;DHT22;3236;51.022;6.818;2024-03-23T13:17:19;13.00;1.00
6407;DHT22;3236;51.022;6.818;2024-03-23T13:19:49;13.20;99.90
6407;DHT22;3236;51.022;6.818;2024-03-23T13:22:16;12.70;99.90
6407;DHT22;3236;51.022;6.818;2024-03-23T13:24:43;12.80;99.90
6407;DHT22;3236;51.022;6.818;2024-03-23T13:27:12;11.50;99.90
6407;DHT22;3236;51.022;6.818;2024-03-23T13:32:06;11.80;99.90
6407;DHT22;3236;51.022;6.818;2024-03-23T13:34:33;10.70;99.90
6407;DHT22;3236;51.022;6.818;2024-03-23T13:37:00;10.40;99.90
6407;DHT22;3236;51.022;6.818;2024-03-23T13:39:29;10.80;20.90
6407;DHT22;3236;51.022;6.818;2024-03-23T13:42:05;12.40;99.90
6407;DHT22;3236;51.022;6.818;2024-03-23T13:44:37;12.80;99.90
6407;DHT22;3236;51.022;6.818;2024-03-23T13:47:03;11.50;99.90
6407;DHT22;3236;51.022;6.818;2024-03-23T13:49:31;10.70;99.90
6407;DHT22;3236;51.022;6.818;2024-03-23T13:51:58;9.10;99.90
6407;DHT22;3236;51.022;6.818;2024-03-23T13:56:53;8.60;99.90
6407;DHT22;3236;51.022;6.818;2024-03-23T14:01:50;8.40;99.90
6407;DHT22;3236;51.022;6.818;2024-03-23T14:19:04;14.40;11.80
6407;DHT22;3236;51.022;6.818;2024-03-23T14:33:56;9.90;99.90
6407;DHT22;3236;51.022;6.818;2024-03-23T14:36:32;8.90;20.60
6407;DHT22;3236;51.022;6.818;2024-03-23T14:41:26;8.50;90.10
6407;DHT22;3236;51.022;6.818;2024-03-23T14:43:52;7.90;99.90
6407;DHT22;3236;51.022;6.818;2024-03-23T14:48:46;7.80;99.90
6407;DHT22;3236;51.022;6.818;2024-03-23T14:53:44;7.50;99.90
6407;DHT22;3236;51.022;6.818;2024-03-23T14:56:12;6.90;99.90
6407;DHT22;3236;51.022;6.818;2024-03-23T14:58:40;6.80;99.90
6407;DHT22;3236;51.022;6.818;2024-03-23T15:01:08;6.80;99.90
6407;DHT22;3236;51.022;6.818;2024-03-23T15:03:35;7.00;99.90
6407;DHT22;3236;51.022;6.818;2024-03-23T15:06:02;7.10;99.90
6407;DHT22;3236;51.022;6.818;2024-03-23T15:11:00;9.40;57.20
6407;DHT22;3236;51.022;6.818;2024-03-23T15:13:31;10.80;99.90
6407;DHT22;3236;51.022;6.818;2024-03-23T15:16:00;11.90;1.00
6407;DHT22;3236;51.022;6.818;2024-03-23T15:20:55;10.50;99.90
6407;DHT22;3236;51.022;6.818;2024-03-23T15:25:55;10.20;1.00
6407;DHT22;3236;51.022;6.818;2024-03-23T15:28:23;11.50;99.90
6407;DHT22;3236;51.022;6.818;2024-03-23T15:30:59;12.50;99.90
6407;DHT22;3236;51.022;6.818;2024-03-23T15:35:52;13.40;90.80
6407;DHT22;3236;51.022;6.818;2024-03-23T15:40:53;13.70;1.00
6407;DHT22;3236;51.022;6.818;2024-03-23T15:43:19;12.80;57.00
6407;DHT22;3236;51.022;6.818;2024-03-23T15:48:21;11.00;84.80
6407;DHT22;3236;51.022;6.818;2024-03-23T15:53:18;9.40;99.90
6407;DHT22;3236;51.022;6.818;2024-03-23T16:00:39;8.50;99.90
6407;DHT22;3236;51.022;6.818;2024-03-23T16:03:07;8.20;99.90
6407;DHT22;3236;51.022;6.818;2024-03-23T16:20:15;8.00;99.90
6407;DHT22;3236;51.022;6.818;2024-03-23T16:30:03;7.80;99.90
6407;DHT22;3236;51.022;6.818;2024-03-23T16:37:28;7.60;99.90
6407;DHT22;3236;51.022;6.818;2024-03-23T16:49:43;6.60;1.00
6407;DHT22;3236;51.022;6.818;2024-03-23T16:54:38;6.80;1.00
6407;DHT22;3236;51.022;6.818;2024-03-23T16:57:04;7.00;99.90
6407;DHT22;3236;51.022;6.818;2024-03-23T17:06:52;6.80;99.90
6407;DHT22;3236;51.022;6.818;2024-03-23T17:11:46;6.60;99.90
6407;DHT22;3236;51.022;6.818;2024-03-23T17:19:08;6.40;99.90
6407;DHT22;3236;51.022;6.818;2024-03-23T17:24:05;6.30;99.90
6407;DHT22;3236;51.022;6.818;2024-03-23T17:26:32;6.70;99.90
6407;DHT22;3236;51.022;6.818;2024-03-23T17:29:00;6.50;99.90
6407;DHT22;3236;51.022;6.818;2024-03-23T17:33:54;6.40;56.00
6407;DHT22;3236;51.022;6.818;2024-03-23T17:36:21;6.20;99.90
6407;DHT22;3236;51.022;6.818;2024-03-23T17:38:52;6.40;99.90
6407;DHT22;3236;51.022;6.818;2024-03-23T17:46:14;6.30;99.90
6407;DHT22;3236;51.022;6.818;2024-03-23T17:53:39;6.60;17.70
6407;DHT22;3236;51.022;6.818;2024-03-23T17:56:09;6.70;50.80
6407;DHT22;3236;51.022;6.818;2024-03-23T17:58:36;6.40;1.00
6407;DHT22;3236;51.022;6.818;2024-03-23T18:01:06;6.40;99.90
6407;DHT22;3236;51.022;6.818;2024-03-23T18:03:34;6.30;99.90
6407;DHT22;3236;51.022;6.818;2024-03-23T18:06:00;6.50;99.90
6407;DHT22;3236;51.022;6.818;2024-03-23T18:08:27;6.10;71.80
6407;DHT22;3236;51.022;6.818;2024-03-23T18:10:53;6.30;99.90
6407;DHT22;3236;51.022;6.818;2024-03-23T18:15:55;6.10;1.00
6407;DHT22;3236;51.022;6.818;2024-03-23T18:20:51;6.40;1.00
6407;DHT22;3236;51.022;6.818;2024-03-23T18:23:19;6.70;5.10
6407;DHT22;3236;51.022;6.818;2024-03-23T18:25:57;6.40;1.00
6407;DHT22;3236;51.022;6.818;2024-03-23T18:28:25;6.80;99.90
6407;DHT22;3236;51.022;6.818;2024-03-23T18:31:00;6.40;50.10
6407;DHT22;3236;51.022;6.818;2024-03-23T18:33:32;6.00;33.70
6407;DHT22;3236;51.022;6.818;2024-03-23T18:36:00;6.00;22.70
6407;DHT22;3236;51.022;6.818;2024-03-23T18:38:27;5.90;99.90
6407;DHT22;3236;51.022;6.818;2024-03-23T18:40:53;5.60;99.90
6407;DHT22;3236;51.022;6.818;2024-03-23T18:45:46;5.60;99.90
6407;DHT22;3236;51.022;6.818;2024-03-23T18:48:14;5.50;99.90
6407;DHT22;3236;51.022;6.818;2024-03-23T18:50:40;5.50;99.90
6407;DHT22;3236;51.022;6.818;2024-03-23T18:53:09;5.30;99.90
6407;DHT22;3236;51.022;6.818;2024-03-23T18:58:03;5.20;99.90
6407;DHT22;3236;51.022;6.818;2024-03-23T19:07:50;5.40;99.90
6407;DHT22;3236;51.022;6.818;2024-03-23T19:10:19;4.80;99.90
6407;DHT22;3236;51.022;6.818;2024-03-23T19:12:47;5.00;99.90
6407;DHT22;3236;51.022;6.818;2024-03-23T19:15:13;4.80;99.90
6407;DHT22;3236;51.022;6.818;2024-03-23T19:20:07;5.10;99.90
6407;DHT22;3236;51.022;6.818;2024-03-23T19:27:30;4.70;99.90
6407;DHT22;3236;51.022;6.818;2024-03-23T19:29:59;4.80;99.90
6407;DHT22;3236;51.022;6.818;2024-03-23T19:44:45;4.90;99.90
6407;DHT22;3236;51.022;6.818;2024-03-23T19:57:00;4.70;99.90
6407;DHT22;3236;51.022;6.818;2024-03-23T19:59:26;4.80;99.90
6407;DHT22;3236;51.022;6.818;2024-03-23T20:01:54;5.20;99.90
6407;DHT22;3236;51.022;6.818;2024-03-23T20:04:20;4.90;99.90
6407;DHT22;3236;51.022;6.818;2024-03-23T20:06:47;4.90;99.90
6407;DHT22;3236;51.022;6.818;2024-03-23T20:09:14;5.10;99.90
6407;DHT22;3236;51.022;6.818;2024-03-23T20:11:41;4.70;99.90
6407;DHT22;3236;51.022;6.818;2024-03-23T20:14:08;4.90;99.90
6407;DHT22;3236;51.022;6.818;2024-03-23T20:16:35;4.40;99.90
6407;DHT22;3236;51.022;6.818;2024-03-23T20:19:04;4.90;99.90
6407;DHT22;3236;51.022;6.818;2024-03-23T20:21:32;4.80;99.90
6407;DHT22;3236;51.022;6.818;2024-03-23T20:23:58;5.00;99.90
6407;DHT22;3236;51.022;6.818;2024-03-23T20:26:26;5.20;99.90
6407;DHT22;3236;51.022;6.818;2024-03-23T20:28:52;5.20;99.90
6407;DHT22;3236;51.022;6.818;2024-03-23T20:31:19;5.20;99.90
6407;DHT22;3236;51.022;6.818;2024-03-23T20:33:45;5.00;99.90
6407;DHT22;3236;51.022;6.818;2024-03-23T20:36:15;5.00;99.90
6407;DHT22;3236;51.022;6.818;2024-03-23T20:41:08;5.30;99.90
6407;DHT22;3236;51.022;6.818;2024-03-23T20:48:31;5.40;99.90
6407;DHT22;3236;51.022;6.818;2024-03-23T20:51:02;5.40;99.90
6407;DHT22;3236;51.022;6.818;2024-03-23T20:53:30;5.60;99.90
6407;DHT22;3236;51.022;6.818;2024-03-23T20:55:58;5.50;99.90
6407;DHT22;3236;51.022;6.818;2024-03-23T20:58:26;5.30;99.90
6407;DHT22;3236;51.022;6.818;2024-03-23T21:00:53;5.50;99.90
6407;DHT22;3236;51.022;6.818;2024-03-23T21:03:19;5.80;99.90
6407;DHT22;3236;51.022;6.818;2024-03-23T21:05:51;5.60;99.90
6407;DHT22;3236;51.022;6.818;2024-03-23T21:08:17;5.70;99.90
6407;DHT22;3236;51.022;6.818;2024-03-23T21:10:49;5.90;99.90
6407;DHT22;3236;51.022;6.818;2024-03-23T21:13:16;5.70;99.90
6407;DHT22;3236;51.022;6.818;2024-03-23T21:15:46;5.70;99.90
6407;DHT22;3236;51.022;6.818;2024-03-23T21:18:21;5.50;99.90
6407;DHT22;3236;51.022;6.818;2024-03-23T21:20:53;5.80;99.90
6407;DHT22;3236;51.022;6.818;2024-03-23T21:23:20;5.40;99.90
6407;DHT22;3236;51.022;6.818;2024-03-23T21:25:55;5.40;99.90
6407;DHT22;3236;51.022;6.818;2024-03-23T21:28:21;5.40;99.90
6407;DHT22;3236;51.022;6.818;2024-03-23T21:30:48;5.40;99.90
6407;DHT22;3236;51.022;6.818;2024-03-23T21:33:14;5.70;99.90
6407;DHT22;3236;51.022;6.818;2024-03-23T21:35:42;5.40;99.90
6407;DHT22;3236;51.022;6.818;2024-03-23T21:38:09;5.50;99.90
6407;DHT22;3236;51.022;6.818;2024-03-23T21:40:51;5.60;99.90
6407;DHT22;3236;51.022;6.818;2024-03-23T21:43:18;5.70;99.90
6407;DHT22;3236;51.022;6.818;2024-03-23T21:45:53;5.30;99.90
6407;DHT22;3236;51.022;6.818;2024-03-23T21:48:19;5.40;99.90
6407;DHT22;3236;51.022;6.818;2024-03-23T21:50:47;5.30;99.90
6407;DHT22;3236;51.022;6.818;2024-03-23T21:53:16;5.40;99.90
6407;DHT22;3236;51.022;6.818;2024-03-23T21:55:50;5.40;99.90
6407;DHT22;3236;51.022;6.818;2024-03-23T21:58:30;5.40;99.90
6407;DHT22;3236;51.022;6.818;2024-03-23T22:00:57;5.30;99.90
6407;DHT22;3236;51.022;6.818;2024-03-23T22:03:23;5.40;99.90
6407;DHT22;3236;51.022;6.818;2024-03-23T22:05:53;5.40;99.90
6407;DHT22;3236;51.022;6.818;2024-03-23T22:08:19;5.30;99.90
6407;DHT22;3236;51.022;6.818;2024-03-23T22:10:47;5.40;99.90
6407;DHT22;3236;51.022;6.818;2024-03-23T22:13:13;5.20;99.90
6407;DHT22;3236;51.022;6.818;2024-03-23T22:15:42;5.30;99.90
6407;DHT22;3236;51.022;6.818;2024-03-23T22:18:08;5.30;99.90
6407;DHT22;3236;51.022;6.818;2024-03-23T22:23:01;4.90;99.90
6407;DHT22;3236;51.022;6.818;2024-03-23T22:25:29;4.90;99.90
6407;DHT22;3236;51.022;6.818;2024-03-23T22:27:55;4.90;99.90
6407;DHT22;3236;51.022;6.818;2024-03-23T22:32:50;5.10;99.90
6407;DHT22;3236;51.022;6.818;2024-03-23T22:35:17;4.70;99.90
6407;DHT22;3236;51.022;6.818;2024-03-23T22:37:49;4.60;99.90
6407;DHT22;3236;51.022;6.818;2024-03-23T22:40:17;4.80;99.90
6407;DHT22;3236;51.022;6.818;2024-03-23T22:42:43;4.90;99.90
6407;DHT22;3236;51.022;6.818;2024-03-23T22:45:10;4.80;99.90
6407;DHT22;3236;51.022;6.818;2024-03-23T22:47:36;4.80;99.90
6407;DHT22;3236;51.022;6.818;2024-03-23T22:50:05;5.00;99.90
6407;DHT22;3236;51.022;6.818;2024-03-23T22:54:58;4.80;99.90
6407;DHT22;3236;51.022;6.818;2024-03-23T22:57:24;4.50;99.90
6407;DHT22;3236;51.022;6.818;2024-03-23T23:07:13;4.60;99.90
6407;DHT22;3236;51.022;6.818;2024-03-23T23:09:40;4.60;99.90
6407;DHT22;3236;51.022;6.818;2024-03-23T23:12:07;4.50;99.90
6407;DHT22;3236;51.022;6.818;2024-03-23T23:14:34;4.80;99.90